Time;durP1;ratioP1;P1;durP2;ratioP2;P2;SDS_P1;SDS_P2;PMS_P1;PMS_P2;Temp;Humidity;BMP_temperature;BMP_pressure;BME280_temperature;BME280_humidity;BME280_pressure;Samples;Min_cycle;Max_cycle;Signal;HPM_P1;HPM_P2
2022/09/12 00:01:06;;;;;;;18.75;16.85;;;14.60;99.90;;;;;;5051407;28;20032;-71
2022/09/12 00:03:32;;;;;;;18.08;16.30;;;14.50;99.90;;;;;;5052341;28;20040;-71
2022/09/12 00:05:57;;;;;;;17.67;16.08;;;14.60;99.90;;;;;;5052878;28;20028;-71
2022/09/12 00:08:23;;;;;;;18.85;16.88;;;14.50;99.90;;;;;;5051974;28;20188;-71
2022/09/12 00:10:48;;;;;;;17.98;16.08;;;15.00;99.90;;;;;;5052822;28;20025;-71
2022/09/12 00:13:14;;;;;;;17.98;16.15;;;14.60;99.90;;;;;;5051925;28;20500;-71
2022/09/12 00:15:43;;;;;;;18.30;16.50;;;14.50;99.90;;;;;;5055851;28;20025;-71
2022/09/12 00:18:13;;;;;;;17.70;16.00;;;14.50;99.90;;;;;;5054523;28;20083;-71
2022/09/12 00:20:46;;;;;;;19.48;17.48;;;14.60;99.90;;;;;;5043968;28;20037;-71
2022/09/12 00:23:13;;;;;;;18.77;16.88;;;14.50;99.90;;;;;;5065273;28;20047;-71
2022/09/12 00:25:43;;;;;;;19.63;17.58;;;14.20;99.90;;;;;;5072315;28;20063;-71
2022/09/12 00:28:09;;;;;;;19.95;17.23;;;14.40;99.90;;;;;;5072472;28;20098;-71
2022/09/12 00:30:42;;;;;;;18.70;16.80;;;14.40;99.90;;;;;;5061584;28;20033;-71
2022/09/12 00:33:09;;;;;;;17.35;15.55;;;14.30;99.90;;;;;;5050924;28;20474;-71
2022/09/12 00:35:41;;;;;;;19.25;17.35;;;15.20;99.90;;;;;;5052032;28;20109;-71
2022/09/12 00:38:06;;;;;;;20.45;18.35;;;14.30;99.90;;;;;;5051416;28;20523;-71
2022/09/12 00:40:32;;;;;;;20.27;18.15;;;14.20;99.90;;;;;;5051860;28;20041;-71
2022/09/12 00:42:57;;;;;;;24.95;18.65;;;14.20;99.90;;;;;;5052407;28;20021;-72
2022/09/12 00:45:28;;;;;;;20.17;18.00;;;14.20;99.90;;;;;;5051705;28;20090;-72
2022/09/12 00:47:57;;;;;;;18.20;16.30;;;14.20;99.90;;;;;;5052233;28;20025;-72
2022/09/12 00:50:23;;;;;;;20.58;18.40;;;14.20;99.90;;;;;;5050867;28;20068;-72
2022/09/12 00:52:53;;;;;;;20.52;18.52;;;14.20;99.90;;;;;;5051660;28;20032;-72
2022/09/12 00:55:23;;;;;;;20.63;17.95;;;14.20;99.90;;;;;;5051395;28;20049;-72
2022/09/12 00:57:56;;;;;;;20.90;18.50;;;14.20;99.90;;;;;;5052129;28;20018;-73
2022/09/12 01:00:24;;;;;;;22.15;19.83;;;14.00;99.90;;;;;;5051375;28;20053;-72
2022/09/12 01:03:00;;;;;;;21.17;18.98;;;14.10;99.90;;;;;;5052085;28;20013;-72
2022/09/12 01:05:28;;;;;;;22.38;20.00;;;14.10;99.90;;;;;;5050751;28;20083;-72
2022/09/12 01:07:54;;;;;;;24.02;21.40;;;14.10;99.90;;;;;;5051843;28;20424;-72
2022/09/12 01:10:20;;;;;;;27.55;21.50;;;14.10;99.90;;;;;;5051060;28;20377;-72
2022/09/12 01:12:47;;;;;;;25.95;23.33;;;14.10;99.90;;;;;;5051872;28;20031;-72
2022/09/12 01:15:12;;;;;;;23.38;19.58;;;14.20;99.90;;;;;;5051029;28;20044;-72
2022/09/12 01:18:03;;;;;;;27.70;24.73;;;14.10;99.90;;;;;;5050318;28;20049;-72
2022/09/12 01:20:34;;;;;;;25.73;22.35;;;14.20;99.90;;;;;;5042228;28;20037;-72
2022/09/12 01:23:19;;;;;;;24.30;21.65;;;14.20;99.90;;;;;;5063645;28;20021;-72
2022/09/12 01:26:19;;;;;;;24.48;21.85;;;14.20;99.90;;;;;;5044497;28;20036;-72
2022/09/12 01:29:12;;;;;;;29.38;23.90;;;14.10;99.90;;;;;;5057718;28;20276;-72
2022/09/12 01:32:02;;;;;;;27.80;22.63;;;14.10;99.90;;;;;;5071403;28;20024;-72
2022/09/12 01:34:33;;;;;;;24.17;21.52;;;14.00;99.90;;;;;;5046948;28;20035;-72
2022/09/12 01:37:06;;;;;;;27.90;22.50;;;14.10;99.90;;;;;;5071138;28;20027;-72
2022/09/12 01:39:53;;;;;;;27.75;24.45;;;14.00;99.90;;;;;;5070915;28;20033;-72
2022/09/12 01:42:33;;;;;;;29.67;25.92;;;14.10;99.90;;;;;;5070559;28;20028;-72
2022/09/12 01:45:30;;;;;;;29.15;25.30;;;14.10;99.90;;;;;;5070870;28;20492;-73
2022/09/12 01:48:19;;;;;;;29.00;23.27;;;14.10;99.90;;;;;;5065108;28;20523;-72
2022/09/12 01:51:26;;;;;;;26.35;23.48;;;14.00;99.90;;;;;;5050696;28;20029;-72
2022/09/12 01:54:05;;;;;;;24.60;22.00;;;14.00;99.90;;;;;;5064830;28;20108;-72
2022/09/12 01:56:34;;;;;;;26.67;23.45;;;14.00;99.90;;;;;;5054627;28;20044;-72
2022/09/12 01:59:17;;;;;;;24.40;21.60;;;13.90;99.90;;;;;;5069406;28;20074;-72
2022/09/12 02:02:08;;;;;;;28.45;24.80;;;13.90;99.90;;;;;;5070607;28;20035;-72
2022/09/12 02:04:57;;;;;;;28.20;25.20;;;13.80;99.90;;;;;;5064894;28;20025;-72
2022/09/12 02:07:43;;;;;;;29.58;26.38;;;13.80;99.90;;;;;;5070213;28;20481;-72
2022/09/12 02:10:25;;;;;;;30.70;24.30;;;13.70;99.90;;;;;;5046923;28;20032;-72
2022/09/12 02:13:06;;;;;;;29.17;24.27;;;13.80;99.90;;;;;;5070503;28;20113;-72
2022/09/12 02:15:36;;;;;;;27.75;24.23;;;13.70;99.90;;;;;;5059901;28;20061;-72
2022/09/12 02:18:04;;;;;;;28.33;23.30;;;13.70;99.90;;;;;;5050075;28;20086;-72
2022/09/12 02:20:36;;;;;;;25.92;21.52;;;13.70;99.90;;;;;;5039121;28;20879;-72
2022/09/12 02:23:07;;;;;;;29.70;24.13;;;13.60;99.90;;;;;;5050558;28;20375;-71
2022/09/12 02:25:36;;;;;;;26.58;23.70;;;13.70;99.90;;;;;;5049912;28;20465;-72
2022/09/12 02:28:10;;;;;;;28.45;24.88;;;13.60;99.90;;;;;;5050301;28;20020;-72
2022/09/12 02:30:58;;;;;;;31.42;24.88;;;13.60;99.90;;;;;;5049858;28;20021;-71
2022/09/12 02:33:31;;;;;;;31.77;25.48;;;13.60;99.90;;;;;;5049450;28;20032;-72
2022/09/12 02:36:14;;;;;;;31.50;25.55;;;13.40;99.90;;;;;;5050016;28;20029;-72
2022/09/12 02:38:44;;;;;;;29.50;23.63;;;13.40;99.90;;;;;;5050103;28;20044;-71
2022/09/12 02:41:11;;;;;;;31.88;26.70;;;13.40;99.90;;;;;;5049460;28;20086;-71
2022/09/12 02:43:37;;;;;;;32.05;25.80;;;14.50;99.90;;;;;;5050191;28;20021;-72
2022/09/12 02:46:08;;;;;;;33.55;27.08;;;13.50;99.90;;;;;;5049699;28;20055;-72
2022/09/12 02:48:39;;;;;;;29.27;23.48;;;13.40;99.90;;;;;;5047260;28;20426;-71
2022/09/12 02:51:04;;;;;;;30.13;25.00;;;13.40;99.90;;;;;;5040737;28;20035;-71
2022/09/12 02:53:31;;;;;;;31.00;24.50;;;13.40;99.90;;;;;;5049402;28;20028;-71
2022/09/12 02:55:57;;;;;;;33.97;25.95;;;13.40;99.90;;;;;;5048084;28;20048;-71
2022/09/12 02:58:27;;;;;;;33.40;26.98;;;13.40;99.90;;;;;;5049067;28;20033;-72
2022/09/12 03:01:17;;;;;;;34.03;25.77;;;13.40;99.90;;;;;;5049061;28;20031;-72
2022/09/12 03:04:14;;;;;;;36.88;26.30;;;13.40;99.90;;;;;;5047428;28;20017;-72
2022/09/12 03:07:02;;;;;;;35.97;27.52;;;13.40;99.90;;;;;;5047304;28;20025;-71
2022/09/12 03:09:52;;;;;;;36.20;28.20;;;13.30;99.90;;;;;;5042300;28;20478;-71
2022/09/12 03:12:46;;;;;;;34.67;27.23;;;13.30;99.90;;;;;;5044361;28;20583;-71
2022/09/12 03:15:27;;;;;;;37.03;28.02;;;13.40;99.90;;;;;;5034653;28;20107;-71
2022/09/12 03:18:36;;;;;;;38.25;29.73;;;13.40;99.90;;;;;;5049775;28;20035;-71
2022/09/12 03:21:22;;;;;;;39.50;28.35;;;13.20;99.90;;;;;;5048800;28;20029;-71
2022/09/12 03:24:15;;;;;;;39.83;29.25;;;13.40;99.90;;;;;;5069586;28;20016;-71
2022/09/12 03:26:49;;;;;;;44.13;30.75;;;13.40;99.90;;;;;;5069670;28;20043;-71
2022/09/12 03:29:15;;;;;;;;;;;13.30;99.90;;;;;;5069525;28;20470;-71
2022/09/12 03:31:52;;;;;;;36.95;28.73;;;13.20;99.90;;;;;;5069246;28;20406;-71
2022/09/12 03:34:20;;;;;;;40.22;28.42;;;13.30;99.90;;;;;;5043100;28;20029;-71
2022/09/12 03:36:46;;;;;;;43.38;31.58;;;13.30;99.90;;;;;;5051902;28;20075;-71
2022/09/12 03:39:12;;;;;;;47.63;34.65;;;13.40;99.90;;;;;;5053269;28;20029;-71
2022/09/12 03:41:37;;;;;;;47.13;31.85;;;13.40;99.90;;;;;;5069392;28;20035;-71
2022/09/12 03:44:03;;;;;;;45.40;34.85;;;13.40;99.90;;;;;;5068944;28;20108;-71
2022/09/12 03:46:28;;;;;;;41.35;33.33;;;13.40;99.90;;;;;;5059972;28;20029;-71
2022/09/12 03:48:54;;;;;;;47.55;36.03;;;13.40;99.90;;;;;;5063450;28;20029;-71
2022/09/12 03:51:19;;;;;;;52.40;35.58;;;13.40;99.90;;;;;;5054765;28;20028;-71
2022/09/12 03:53:45;;;;;;;51.88;36.55;;;13.40;99.90;;;;;;5068745;28;20025;-71
2022/09/12 03:56:11;;;;;;;50.17;35.47;;;13.40;99.90;;;;;;5049225;28;20053;-71
2022/09/12 03:58:37;;;;;;;49.55;35.08;;;13.40;99.90;;;;;;5049101;28;20033;-71
2022/09/12 04:01:11;;;;;;;48.20;34.65;;;13.40;99.90;;;;;;5049126;28;20482;-71
2022/09/12 04:03:38;;;;;;;47.15;34.72;;;13.30;99.90;;;;;;5048139;28;20107;-71
2022/09/12 04:06:04;;;;;;;52.88;38.33;;;13.50;99.90;;;;;;5048871;28;20036;-71
2022/09/12 04:08:30;;;;;;;54.00;34.85;;;13.40;99.90;;;;;;5055902;28;20460;-71
2022/09/12 04:11:09;;;;;;;49.83;36.53;;;13.40;99.90;;;;;;5049247;28;20028;-71
2022/09/12 04:13:36;;;;;;;50.03;37.03;;;13.40;99.90;;;;;;5051978;28;20059;-70
2022/09/12 04:16:03;;;;;;;59.05;38.58;;;13.60;99.90;;;;;;5052625;28;20108;-71
2022/09/12 04:18:29;;;;;;;63.42;41.97;;;13.40;99.90;;;;;;5054817;28;20466;-71
2022/09/12 04:20:54;;;;;;;61.85;41.50;;;13.50;99.90;;;;;;5055349;28;20036;-71
2022/09/12 04:23:20;;;;;;;62.30;43.22;;;13.40;99.90;;;;;;5062931;28;20027;-71
2022/09/12 04:25:59;;;;;;;65.25;43.40;;;13.60;99.90;;;;;;5069298;28;20470;-71
2022/09/12 04:28:27;;;;;;;60.25;40.38;;;13.60;99.90;;;;;;5065595;28;20036;-71
2022/09/12 04:30:54;;;;;;;61.95;42.17;;;13.50;99.90;;;;;;5059336;28;20041;-71
2022/09/12 04:33:20;;;;;;;77.07;45.30;;;13.60;99.90;;;;;;5071950;28;20115;-71
2022/09/12 04:35:46;;;;;;;66.40;41.35;;;13.60;99.90;;;;;;5064769;28;20433;-71
2022/09/12 04:38:12;;;;;;;69.22;42.35;;;13.60;99.90;;;;;;5071664;28;20052;-71
2022/09/12 04:40:37;;;;;;;64.20;41.17;;;13.70;99.90;;;;;;5072222;28;20068;-71
2022/09/12 04:43:03;;;;;;;61.65;40.85;;;13.70;99.90;;;;;;5072022;28;20141;-72
2022/09/12 04:45:29;;;;;;;71.32;42.53;;;13.80;99.90;;;;;;5070390;28;20020;-72
2022/09/12 04:47:55;;;;;;;77.18;46.40;;;13.60;99.90;;;;;;5072274;28;20027;-72
2022/09/12 04:50:21;;;;;;;64.00;42.97;;;13.70;99.90;;;;;;5071515;28;20021;-72
2022/09/12 04:52:51;;;;;;;74.30;48.47;;;13.70;99.90;;;;;;5072128;28;20369;-71
2022/09/12 04:55:16;;;;;;;73.10;45.20;;;13.70;99.90;;;;;;5059754;28;20095;-72
2022/09/12 04:57:42;;;;;;;74.30;47.38;;;13.80;99.90;;;;;;5069136;28;20024;-72
2022/09/12 05:00:13;;;;;;;79.80;45.10;;;13.70;99.90;;;;;;5056539;28;20044;-72
2022/09/12 05:02:40;;;;;;;84.43;49.92;;;13.70;99.90;;;;;;5044821;28;20083;-72
2022/09/12 05:05:06;;;;;;;97.85;54.15;;;13.70;99.90;;;;;;5050350;28;20485;-72
2022/09/12 05:07:32;;;;;;;94.22;50.80;;;13.70;99.90;;;;;;5051533;28;20029;-73
2022/09/12 05:09:57;;;;;;;86.70;50.78;;;13.80;99.90;;;;;;5051817;28;20044;-72
2022/09/12 05:12:23;;;;;;;79.47;46.30;;;13.80;99.90;;;;;;5051038;28;20035;-72
2022/09/12 05:14:49;;;;;;;78.93;47.95;;;13.80;99.90;;;;;;5051794;28;20024;-71
2022/09/12 05:17:15;;;;;;;89.22;50.22;;;13.70;99.90;;;;;;5050904;28;20029;-71
2022/09/12 05:19:40;;;;;;;83.30;49.88;;;13.70;99.90;;;;;;5064092;28;20039;-72
2022/09/12 05:22:06;;;;;;;80.30;48.03;;;13.80;99.90;;;;;;5071192;28;20032;-71
2022/09/12 05:24:34;;;;;;;76.05;48.80;;;13.80;99.90;;;;;;5071025;28;20390;-72
2022/09/12 05:26:59;;;;;;;90.95;50.95;;;13.90;99.90;;;;;;5070864;28;20036;-72
2022/09/12 05:29:25;;;;;;;87.63;50.28;;;13.80;99.90;;;;;;5070815;28;20024;-72
2022/09/12 05:31:51;;;;;;;87.85;48.53;;;13.80;99.90;;;;;;5049930;28;20034;-72
2022/09/12 05:34:18;;;;;;;74.90;47.22;;;13.70;99.90;;;;;;5051196;28;20385;-72
2022/09/12 05:36:44;;;;;;;93.00;53.40;;;14.00;99.90;;;;;;5052226;28;20040;-72
2022/09/12 05:39:10;;;;;;;94.15;52.15;;;14.00;99.90;;;;;;5049772;28;20029;-75
2022/09/12 05:41:35;;;;;;;99.68;51.15;;;14.00;99.90;;;;;;5050425;28;20041;-72
2022/09/12 05:44:04;;;;;;;95.38;53.28;;;13.90;99.90;;;;;;5051243;28;20060;-73
2022/09/12 05:46:35;;;;;;;104.13;55.00;;;14.00;99.90;;;;;;5050629;28;20134;-72
2022/09/12 05:49:06;;;;;;;102.28;54.70;;;14.00;99.90;;;;;;5051158;28;20527;-73
2022/09/12 05:51:37;;;;;;;90.35;52.03;;;14.10;99.90;;;;;;5050758;28;20105;-72
2022/09/12 05:54:04;;;;;;;88.53;53.13;;;14.00;99.90;;;;;;5049838;28;20112;-72
2022/09/12 05:56:32;;;;;;;95.47;52.97;;;14.10;99.90;;;;;;5050013;28;20072;-73
2022/09/12 05:58:59;;;;;;;98.72;53.55;;;14.20;99.90;;;;;;5050634;28;20040;-73
2022/09/12 06:01:26;;;;;;;87.15;51.60;;;14.10;99.90;;;;;;5044135;28;20041;-73
2022/09/12 06:03:54;;;;;;;103.13;56.25;;;14.20;99.90;;;;;;5045799;28;20064;-73
2022/09/12 06:06:22;;;;;;;98.95;56.25;;;14.00;99.90;;;;;;5053839;28;20458;-73
2022/09/12 06:08:50;;;;;;;99.28;55.40;;;14.20;99.90;;;;;;5048845;28;20079;-73
2022/09/12 06:11:18;;;;;;;96.22;52.50;;;15.90;99.90;;;;;;5049671;28;20044;-73
2022/09/12 06:13:43;;;;;;;87.65;53.28;;;14.40;99.90;;;;;;5054168;28;20027;-73
2022/09/12 06:16:15;;;;;;;89.40;51.60;;;14.30;99.90;;;;;;5040324;28;20025;-73
2022/09/12 06:18:41;;;;;;;83.03;50.35;;;14.40;99.90;;;;;;5057564;28;20024;-73
2022/09/12 06:21:09;;;;;;;104.10;53.97;;;14.40;99.90;;;;;;5050255;28;20043;-73
2022/09/12 06:23:35;;;;;;;100.00;54.70;;;14.50;99.90;;;;;;5062944;28;20055;-73
2022/09/12 06:26:03;;;;;;;92.75;54.15;;;14.50;99.90;;;;;;5050271;28;20068;-73
2022/09/12 06:28:29;;;;;;;89.22;52.95;;;14.60;99.90;;;;;;5049608;28;20036;-73
2022/09/12 06:31:01;;;;;;;87.85;53.75;;;14.60;99.90;;;;;;5062642;28;20029;-73
2022/09/12 06:33:27;;;;;;;96.80;53.40;;;14.60;99.90;;;;;;5049485;28;20029;-73
2022/09/12 06:35:52;;;;;;;98.85;59.00;;;14.50;99.90;;;;;;5049291;28;20021;-73
2022/09/12 06:38:18;;;;;;;101.53;58.13;;;14.60;99.90;;;;;;5048930;28;20485;-73
2022/09/12 06:40:43;;;;;;;107.35;62.28;;;14.60;99.90;;;;;;5049622;28;20037;-72
2022/09/12 06:43:12;;;;;;;95.30;54.08;;;14.50;99.90;;;;;;5049901;28;20020;-72
2022/09/12 06:45:38;;;;;;;108.57;59.22;;;14.60;99.90;;;;;;5049778;28;20118;-72
2022/09/12 06:48:03;;;;;;;94.97;55.03;;;14.50;99.90;;;;;;5049748;28;20466;-72
2022/09/12 06:50:29;;;;;;;98.70;56.03;;;14.60;99.90;;;;;;5049117;28;20502;-72
2022/09/12 06:52:55;;;;;;;94.80;54.17;;;14.50;99.90;;;;;;5049061;28;20013;-71
2022/09/12 06:55:22;;;;;;;92.65;54.20;;;14.50;99.90;;;;;;5048801;28;20129;-71
2022/09/12 06:57:48;;;;;;;104.88;55.20;;;14.50;99.90;;;;;;5049761;28;20037;-72
2022/09/12 07:00:14;;;;;;;96.78;56.65;;;14.60;99.90;;;;;;5049187;28;20067;-72
2022/09/12 07:02:39;;;;;;;95.43;52.63;;;14.60;99.90;;;;;;5042548;28;20049;-72
2022/09/12 07:05:05;;;;;;;95.93;54.67;;;14.50;99.90;;;;;;5041967;28;20037;-71
2022/09/12 07:07:33;;;;;;;95.95;54.28;;;14.60;99.90;;;;;;5060669;28;20028;-71
2022/09/12 07:09:59;;;;;;;107.30;59.45;;;14.70;99.90;;;;;;5053534;28;20377;-72
2022/09/12 07:12:26;;;;;;;97.10;57.35;;;14.80;99.90;;;;;;5050010;28;20389;-71
2022/09/12 07:14:51;;;;;;;114.50;61.22;;;14.70;99.90;;;;;;5049156;28;20033;-72
2022/09/12 07:17:17;;;;;;;98.00;55.78;;;14.90;99.90;;;;;;5047233;28;20033;-71
2022/09/12 07:19:43;;;;;;;91.80;54.50;;;15.00;99.90;;;;;;5052446;28;20047;-72
2022/09/12 07:22:08;;;;;;;90.85;53.05;;;15.20;99.90;;;;;;5054597;28;20114;-71
2022/09/12 07:24:34;;;;;;;89.18;53.72;;;15.30;99.90;;;;;;5049009;28;20433;-71
2022/09/12 07:26:59;;;;;;;97.38;55.20;;;15.80;99.90;;;;;;5045939;28;20538;-71
2022/09/12 07:29:25;;;;;;;100.07;59.25;;;15.30;99.90;;;;;;5051536;28;20086;-71
2022/09/12 07:31:50;;;;;;;93.57;53.38;;;15.20;99.90;;;;;;5047598;28;20466;-72
2022/09/12 07:34:16;;;;;;;87.15;52.45;;;15.30;99.90;;;;;;5052020;28;20025;-71
2022/09/12 07:36:41;;;;;;;92.80;56.35;;;15.40;99.90;;;;;;5056513;28;20033;-72
2022/09/12 07:39:07;;;;;;;81.68;50.30;;;15.50;99.90;;;;;;5045065;28;20022;-72
2022/09/12 07:41:33;;;;;;;93.70;55.20;;;15.60;99.90;;;;;;5049942;28;20576;-74
2022/09/12 07:44:00;;;;;;;81.85;51.67;;;15.70;99.90;;;;;;5053657;28;20032;-72
2022/09/12 07:46:28;;;;;;;73.43;50.05;;;15.80;99.90;;;;;;5051778;28;20080;-71
2022/09/12 07:48:55;;;;;;;83.47;53.10;;;15.90;99.90;;;;;;5051387;28;20024;-71
2022/09/12 07:51:22;;;;;;;84.95;52.78;;;15.90;99.90;;;;;;5052961;28;20037;-71
2022/09/12 07:53:48;;;;;;;63.53;42.95;;;16.10;99.90;;;;;;5064525;28;20096;-71
2022/09/12 07:56:15;;;;;;;76.30;46.88;;;16.30;99.90;;;;;;5052261;28;20124;-72
2022/09/12 07:58:42;;;;;;;72.72;46.65;;;16.10;99.90;;;;;;5052823;28;20182;-71
2022/09/12 08:01:15;;;;;;;76.45;48.65;;;16.10;99.90;;;;;;5062116;28;20040;-72
2022/09/12 08:03:41;;;;;;;75.07;46.93;;;16.30;99.90;;;;;;5054378;28;20028;-73
2022/09/12 08:06:27;;;;;;;70.88;46.28;;;16.50;99.90;;;;;;5052260;28;20082;-72
2022/09/12 08:08:57;;;;;;;75.45;49.50;;;16.00;99.90;;;;;;5052814;28;20017;-72
2022/09/12 08:11:24;;;;;;;71.82;48.42;;;16.30;99.90;;;;;;5053043;28;20027;-72
2022/09/12 08:13:54;;;;;;;74.05;47.88;;;16.30;99.90;;;;;;5052573;28;20021;-72
2022/09/12 08:16:22;;;;;;;67.65;44.75;;;16.30;99.90;;;;;;5047827;28;20078;-71
2022/09/12 08:18:48;;;;;;;71.97;46.55;;;16.40;99.90;;;;;;5057040;28;20019;-73
2022/09/12 08:21:27;;;;;;;71.68;46.22;;;16.30;99.90;;;;;;5071630;28;20036;-71
2022/09/12 08:24:05;;;;;;;70.95;46.97;;;16.50;99.90;;;;;;5072664;28;20020;-71
2022/09/12 08:26:32;;;;;;;67.40;43.65;;;16.50;99.90;;;;;;5071381;28;20028;-71
2022/09/12 08:28:57;;;;;;;67.30;46.15;;;16.60;99.90;;;;;;5064482;28;20021;-72
2022/09/12 08:31:25;;;;;;;68.15;45.75;;;16.70;99.90;;;;;;5068042;28;20533;-71
2022/09/12 08:33:54;;;;;;;67.13;45.35;;;16.80;99.90;;;;;;5065583;28;20020;-71
2022/09/12 08:36:22;;;;;;;58.63;40.97;;;16.90;99.90;;;;;;5050973;28;20082;-72
2022/09/12 08:38:50;;;;;;;55.03;38.83;;;17.00;99.90;;;;;;5062829;28;20489;-71
2022/09/12 08:41:57;;;;;;;50.40;36.80;;;17.10;99.90;;;;;;5046960;28;20104;-71
2022/09/12 08:44:53;;;;;;;45.15;34.47;;;17.10;99.90;;;;;;5043311;28;20489;-72
2022/09/12 08:47:21;;;;;;;46.28;34.90;;;17.20;99.90;;;;;;5046100;28;21742;-72
2022/09/12 08:49:56;;;;;;;51.72;36.35;;;17.30;99.90;;;;;;5051567;28;20016;-71
2022/09/12 08:52:39;;;;;;;43.60;35.17;;;17.50;99.90;;;;;;5047116;28;20480;-71
2022/09/12 08:55:32;;;;;;;48.03;35.03;;;17.60;99.90;;;;;;5052055;28;20506;-71
2022/09/12 08:58:00;;;;;;;45.05;31.00;;;17.60;99.90;;;;;;5057837;28;20041;-71
2022/09/12 09:00:36;;;;;;;39.72;29.15;;;17.70;99.90;;;;;;5058965;28;20037;-72
2022/09/12 09:03:13;;;;;;;35.53;29.50;;;17.80;99.90;;;;;;5051444;28;20049;-71
2022/09/12 09:05:50;;;;;;;36.00;26.73;;;17.90;99.90;;;;;;5047011;28;20032;-71
2022/09/12 09:08:40;;;;;;;30.75;23.98;;;18.10;99.90;;;;;;5054115;28;20036;-71
2022/09/12 09:11:25;;;;;;;26.38;22.40;;;18.10;99.90;;;;;;5055527;28;20494;-71
2022/09/12 09:16:59;;;;;;;33.03;24.67;;;18.20;99.90;;;;;;5051826;28;20035;-72
2022/09/12 09:19:37;;;;;;;29.25;23.10;;;18.40;99.90;;;;;;5061109;28;20113;-71
2022/09/12 09:22:23;;;;;;;29.08;23.58;;;19.00;99.90;;;;;;5071515;28;20166;-72
2022/09/12 09:24:53;;;;;;;27.17;23.70;;;18.60;99.90;;;;;;5072072;28;20025;-71
2022/09/12 09:27:21;;;;;;;29.58;21.48;;;18.70;99.90;;;;;;5070681;28;20025;-72
2022/09/12 09:29:51;;;;;;;28.70;23.25;;;18.70;99.90;;;;;;5071548;28;20032;-71
2022/09/12 09:32:23;;;;;;;29.40;22.05;;;18.70;99.90;;;;;;5060606;28;20044;-72
2022/09/12 09:34:49;;;;;;;26.45;22.25;;;18.90;99.90;;;;;;5058421;28;20044;-71
2022/09/12 09:37:39;;;;;;;24.98;20.70;;;18.90;99.90;;;;;;5070616;28;20072;-71
2022/09/12 09:40:28;;;;;;;25.88;20.35;;;19.10;99.90;;;;;;5071070;28;20025;-71
2022/09/12 09:43:07;;;;;;;24.08;19.35;;;19.30;99.90;;;;;;5046757;28;20028;-71
2022/09/12 09:45:33;;;;;;;20.92;17.27;;;20.40;99.90;;;;;;5070861;28;20028;-72
2022/09/12 09:48:18;;;;;;;21.58;18.92;;;20.20;99.90;;;;;;5070669;28;20024;-71
2022/09/12 09:50:46;;;;;;;22.00;19.60;;;19.40;99.90;;;;;;5070909;28;20469;-72
2022/09/12 09:53:35;;;;;;;23.52;18.38;;;19.50;99.90;;;;;;5070582;28;20021;-72
2022/09/12 09:56:14;;;;;;;20.42;17.60;;;19.80;99.90;;;;;;5057761;28;20041;-71
2022/09/12 09:58:40;;;;;;;18.15;16.20;;;19.70;99.90;;;;;;5039738;28;20056;-71
2022/09/12 10:01:16;;;;;;;18.00;14.77;;;19.90;99.90;;;;;;5047139;28;20108;-71
2022/09/12 10:03:55;;;;;;;17.30;15.57;;;20.00;99.90;;;;;;5050746;28;20017;-71
2022/09/12 10:06:32;;;;;;;19.58;14.65;;;20.00;99.90;;;;;;5041742;28;20413;-72
2022/09/12 10:09:16;;;;;;;19.60;14.77;;;20.00;99.90;;;;;;5049435;28;20062;-71
2022/09/12 10:11:42;;;;;;;17.88;15.98;;;20.70;99.90;;;;;;5050074;28;20108;-72
2022/09/12 10:14:27;;;;;;;18.27;15.88;;;20.20;99.90;;;;;;5050073;28;20119;-72
2022/09/12 10:16:53;;;;;;;18.83;16.27;;;20.20;99.90;;;;;;5049976;28;20021;-71
2022/09/12 10:19:39;;;;;;;16.90;15.15;;;20.60;99.90;;;;;;5059513;28;20032;-71
2022/09/12 10:22:14;;;;;;;18.90;16.40;;;20.50;99.90;;;;;;5051503;28;20060;-72
2022/09/12 10:24:42;;;;;;;16.33;14.65;;;20.40;99.90;;;;;;5039872;28;20471;-71
2022/09/12 10:27:10;;;;;;;19.50;17.27;;;20.40;99.90;;;;;;5062426;28;20035;-72
2022/09/12 10:29:45;;;;;;;16.63;14.90;;;20.40;99.90;;;;;;5059575;28;20029;-72
2022/09/12 10:32:12;;;;;;;18.00;14.85;;;20.60;99.90;;;;;;5044117;28;20517;-70
2022/09/12 10:34:43;;;;;;;16.25;14.15;;;20.50;99.90;;;;;;5048850;28;20102;-70
2022/09/12 10:37:32;;;;;;;15.75;14.15;;;20.50;99.90;;;;;;5049588;28;20039;-70
2022/09/12 10:39:59;;;;;;;16.52;14.88;;;20.50;99.90;;;;;;5050488;28;20024;-73
2022/09/12 10:42:45;;;;;;;16.13;14.52;;;20.70;99.90;;;;;;5049480;28;20097;-72
2022/09/12 10:45:23;;;;;;;15.68;14.18;;;20.70;99.90;;;;;;5043469;28;20035;-70
2022/09/12 10:47:50;;;;;;;15.60;13.98;;;20.70;99.90;;;;;;5046861;28;20056;-71
2022/09/12 10:50:44;;;;;;;16.50;14.82;;;20.80;99.90;;;;;;5049390;28;20029;-72
2022/09/12 10:53:20;;;;;;;16.00;14.30;;;20.90;99.90;;;;;;5047142;28;20033;-75
2022/09/12 10:55:58;;;;;;;15.43;13.82;;;21.00;99.90;;;;;;5059335;28;20406;-71
2022/09/12 10:58:44;;;;;;;16.45;14.88;;;22.00;99.90;;;;;;5045712;28;20457;-72
2022/09/12 11:01:32;;;;;;;15.90;12.73;;;21.00;99.90;;;;;;5048804;28;20497;-72
2022/09/12 11:04:26;;;;;;;13.48;11.73;;;21.10;99.90;;;;;;5041367;28;20378;-71
2022/09/12 11:07:03;;;;;;;15.10;13.60;;;21.10;99.90;;;;;;5052748;28;20029;-71
2022/09/12 11:09:42;;;;;;;12.85;11.52;;;21.10;99.90;;;;;;5041521;28;20392;-70
2022/09/12 11:12:37;;;;;;;12.98;11.75;;;21.20;99.90;;;;;;5049665;28;20026;-71
2022/09/12 11:15:36;;;;;;;11.88;10.68;;;21.30;99.70;;;;;;5036541;28;20055;-71
2022/09/12 11:18:21;;;;;;;11.45;10.35;;;21.20;99.80;;;;;;5057261;28;20028;-71
2022/09/12 11:20:49;;;;;;;12.50;11.25;;;21.30;99.60;;;;;;5044103;28;20040;-72
2022/09/12 11:23:47;;;;;;;8.70;7.80;;;21.40;98.90;;;;;;5066702;28;20024;-72
2022/09/12 11:26:28;;;;;;;8.40;7.70;;;21.50;99.20;;;;;;5046441;28;20033;-71
2022/09/12 11:29:08;;;;;;;8.15;7.30;;;21.40;99.00;;;;;;5061906;28;20018;-71
2022/09/12 11:31:37;;;;;;;8.30;7.53;;;21.50;98.70;;;;;;5058620;28;20071;-71
2022/09/12 11:34:09;;;;;;;7.53;6.85;;;21.60;99.20;;;;;;5054169;28;20021;-71
2022/09/12 11:37:15;;;;;;;9.02;8.23;;;21.50;99.10;;;;;;5065280;28;20060;-70
2022/09/12 11:39:45;;;;;;;10.07;8.48;;;21.70;98.50;;;;;;5051190;28;20037;-70
2022/09/12 11:42:19;;;;;;;9.60;8.45;;;22.60;99.20;;;;;;5060725;28;20032;-71
2022/09/12 11:44:50;;;;;;;7.75;6.85;;;21.80;98.00;;;;;;5051534;28;20021;-71
2022/09/12 11:47:17;;;;;;;7.30;6.63;;;21.80;98.50;;;;;;5053155;28;20037;-71
2022/09/12 11:49:49;;;;;;;6.63;5.97;;;21.90;98.00;;;;;;5053745;28;20021;-71
2022/09/12 11:52:27;;;;;;;6.60;5.88;;;22.30;98.20;;;;;;5057868;28;20104;-71
2022/09/12 11:55:16;;;;;;;7.43;6.63;;;22.10;97.00;;;;;;5050512;28;20025;-70
2022/09/12 11:57:53;;;;;;;5.72;5.22;;;22.20;97.50;;;;;;5059109;28;20033;-71
2022/09/12 12:00:24;;;;;;;6.38;5.13;;;22.30;96.70;;;;;;5059768;28;20106;-71
2022/09/12 12:03:29;;;;;;;5.22;4.72;;;22.30;96.90;;;;;;5053350;28;20457;-71
2022/09/12 12:06:00;;;;;;;4.40;4.00;;;22.30;96.10;;;;;;5049738;28;20033;-72
2022/09/12 12:08:29;;;;;;;5.68;5.03;;;22.20;95.10;;;;;;5049422;28;20160;-71
2022/09/12 12:11:01;;;;;;;6.25;5.65;;;22.80;96.30;;;;;;5051871;28;20114;-71
2022/09/12 12:13:32;;;;;;;6.15;5.55;;;22.40;96.00;;;;;;5058774;28;20354;-70
2022/09/12 12:16:14;;;;;;;7.57;5.68;;;22.50;95.10;;;;;;5057878;28;20390;-71
2022/09/12 12:18:42;;;;;;;6.43;5.75;;;22.40;95.10;;;;;;5052328;28;20096;-71
2022/09/12 12:21:40;;;;;;;6.72;5.88;;;22.50;95.80;;;;;;5069618;28;20037;-71
2022/09/12 12:24:06;;;;;;;8.07;5.78;;;22.50;95.20;;;;;;5058653;28;20032;-71
2022/09/12 12:26:37;;;;;;;5.68;5.20;;;22.40;95.30;;;;;;5061544;28;20021;-71
2022/09/12 12:29:23;;;;;;;6.40;5.82;;;23.00;95.90;;;;;;5060354;28;20029;-71
2022/09/12 12:31:58;;;;;;;6.22;5.63;;;22.60;95.40;;;;;;5052588;28;20033;-71
2022/09/12 12:34:29;;;;;;;7.68;5.57;;;22.80;95.60;;;;;;5049800;28;20033;-70
2022/09/12 12:36:56;;;;;;;7.63;6.68;;;22.70;94.70;;;;;;5060915;28;20024;-71
2022/09/12 12:39:30;;;;;;;6.95;6.32;;;22.70;95.00;;;;;;5061385;28;20090;-71
2022/09/12 12:41:56;;;;;;;7.82;7.05;;;23.00;95.40;;;;;;5056385;28;20039;-71
2022/09/12 12:45:10;;;;;;;8.73;7.18;;;22.70;94.90;;;;;;5050223;28;20104;-70
2022/09/12 12:47:35;;;;;;;7.85;5.95;;;22.90;94.50;;;;;;4998040;28;20021;-70
2022/09/12 12:50:09;;;;;;;5.25;4.65;;;24.80;95.00;;;;;;5001727;28;20088;-71
2022/09/12 12:52:49;;;;;;;5.28;4.25;;;23.20;95.00;;;;;;5006488;28;20061;-70
2022/09/12 12:55:34;;;;;;;5.07;4.60;;;22.90;93.80;;;;;;4995158;28;20576;-70
2022/09/12 12:58:01;;;;;;;4.22;3.83;;;22.90;93.60;;;;;;4989175;28;20488;-71
2022/09/12 13:00:31;;;;;;;5.85;4.47;;;22.80;94.00;;;;;;4993773;28;20150;-70